sensor_id;sensor_type;location;lat;lon;timestamp;pressure;altitude;pressure_sealevel;temperature;humidity
6680;BME280;3376;42.664;23.346;2024-01-25T00:01:17;95073.84;;;4.17;94.42
6680;BME280;3376;42.664;23.346;2024-01-25T00:03:44;95075.16;;;4.32;92.55
6680;BME280;3376;42.664;23.346;2024-01-25T00:06:12;95061.34;;;4.24;93.16
6680;BME280;3376;42.664;23.346;2024-01-25T00:08:39;95055.41;;;4.23;93.50
6680;BME280;3376;42.664;23.346;2024-01-25T00:11:06;95014.72;;;3.98;91.98
6680;BME280;3376;42.664;23.346;2024-01-25T00:13:34;95048.63;;;4.22;91.36
6680;BME280;3376;42.664;23.346;2024-01-25T00:16:04;95022.69;;;4.16;89.52
6680;BME280;3376;42.664;23.346;2024-01-25T00:18:30;95015.47;;;4.10;93.13
6680;BME280;3376;42.664;23.346;2024-01-25T00:20:57;94992.09;;;4.03;94.76
6680;BME280;3376;42.664;23.346;2024-01-25T00:23:26;94956.47;;;4.00;92.44
6680;BME280;3376;42.664;23.346;2024-01-25T00:25:53;94966.78;;;4.10;92.06
6680;BME280;3376;42.664;23.346;2024-01-25T00:28:23;94931.41;;;4.04;91.61
6680;BME280;3376;42.664;23.346;2024-01-25T00:30:50;94944.53;;;3.90;92.18
6680;BME280;3376;42.664;23.346;2024-01-25T00:33:17;94958.00;;;4.03;93.32
6680;BME280;3376;42.664;23.346;2024-01-25T00:35:45;94978.69;;;4.11;94.01
6680;BME280;3376;42.664;23.346;2024-01-25T00:38:12;94970.28;;;4.09;95.07
6680;BME280;3376;42.664;23.346;2024-01-25T00:40:41;94967.97;;;4.26;93.84
6680;BME280;3376;42.664;23.346;2024-01-25T00:43:09;94968.16;;;4.34;92.68
6680;BME280;3376;42.664;23.346;2024-01-25T00:45:37;94946.94;;;4.32;92.12
6680;BME280;3376;42.664;23.346;2024-01-25T00:48:05;94949.91;;;4.28;93.62
6680;BME280;3376;42.664;23.346;2024-01-25T00:50:32;94942.03;;;4.20;92.62
6680;BME280;3376;42.664;23.346;2024-01-25T00:53:00;94924.97;;;4.09;93.27
6680;BME280;3376;42.664;23.346;2024-01-25T00:55:27;94924.16;;;4.09;94.58
6680;BME280;3376;42.664;23.346;2024-01-25T00:57:56;94951.16;;;4.13;93.94
6680;BME280;3376;42.664;23.346;2024-01-25T01:00:26;94972.13;;;4.18;95.19
6680;BME280;3376;42.664;23.346;2024-01-25T01:02:53;94956.84;;;4.16;94.50
6680;BME280;3376;42.664;23.346;2024-01-25T01:05:22;94980.94;;;4.25;92.66
6680;BME280;3376;42.664;23.346;2024-01-25T01:07:51;94972.84;;;4.29;91.94
6680;BME280;3376;42.664;23.346;2024-01-25T01:10:18;94975.03;;;4.34;91.98
6680;BME280;3376;42.664;23.346;2024-01-25T01:12:45;94963.09;;;4.44;92.00
6680;BME280;3376;42.664;23.346;2024-01-25T01:15:13;94959.47;;;4.56;90.70
6680;BME280;3376;42.664;23.346;2024-01-25T01:17:40;94938.56;;;4.60;89.46
6680;BME280;3376;42.664;23.346;2024-01-25T01:20:07;94922.25;;;4.31;90.67
6680;BME280;3376;42.664;23.346;2024-01-25T01:22:34;94920.25;;;4.35;92.54
6680;BME280;3376;42.664;23.346;2024-01-25T01:25:02;94886.84;;;4.25;89.08
6680;BME280;3376;42.664;23.346;2024-01-25T01:27:29;94894.25;;;4.19;90.11
6680;BME280;3376;42.664;23.346;2024-01-25T01:29:55;94885.22;;;4.15;90.82
6680;BME280;3376;42.664;23.346;2024-01-25T01:32:24;94887.63;;;4.16;91.08
6680;BME280;3376;42.664;23.346;2024-01-25T01:34:51;94892.25;;;4.22;91.43
6680;BME280;3376;42.664;23.346;2024-01-25T01:37:19;94900.19;;;4.19;91.63
6680;BME280;3376;42.664;23.346;2024-01-25T01:39:46;94906.03;;;4.31;91.35
6680;BME280;3376;42.664;23.346;2024-01-25T01:42:13;94889.19;;;4.28;92.44
6680;BME280;3376;42.664;23.346;2024-01-25T01:44:40;94899.03;;;4.33;93.13
6680;BME280;3376;42.664;23.346;2024-01-25T01:47:07;94893.22;;;4.31;93.48
6680;BME280;3376;42.664;23.346;2024-01-25T01:49:35;94884.91;;;4.38;93.19
6680;BME280;3376;42.664;23.346;2024-01-25T01:52:03;94875.97;;;4.42;91.75
6680;BME280;3376;42.664;23.346;2024-01-25T01:54:30;94860.63;;;4.52;90.73
6680;BME280;3376;42.664;23.346;2024-01-25T01:56:58;94873.63;;;4.60;90.13
6680;BME280;3376;42.664;23.346;2024-01-25T01:59:25;94865.78;;;4.52;90.20
6680;BME280;3376;42.664;23.346;2024-01-25T02:01:52;94872.50;;;4.53;90.97
6680;BME280;3376;42.664;23.346;2024-01-25T02:04:19;94872.28;;;4.65;90.20
6680;BME280;3376;42.664;23.346;2024-01-25T02:06:47;94868.22;;;4.63;90.04
6680;BME280;3376;42.664;23.346;2024-01-25T02:09:14;94874.72;;;4.67;89.88
6680;BME280;3376;42.664;23.346;2024-01-25T02:11:41;94870.41;;;4.67;90.08
6680;BME280;3376;42.664;23.346;2024-01-25T02:14:08;94863.66;;;4.76;90.31
6680;BME280;3376;42.664;23.346;2024-01-25T02:16:37;94858.94;;;4.81;89.07
6680;BME280;3376;42.664;23.346;2024-01-25T02:19:04;94858.81;;;4.82;88.90
6680;BME280;3376;42.664;23.346;2024-01-25T02:21:31;94864.91;;;5.01;89.06
6680;BME280;3376;42.664;23.346;2024-01-25T02:23:59;94860.59;;;5.01;87.90
6680;BME280;3376;42.664;23.346;2024-01-25T02:26:26;94865.75;;;5.11;87.84
6680;BME280;3376;42.664;23.346;2024-01-25T02:28:53;94862.09;;;5.13;88.18
6680;BME280;3376;42.664;23.346;2024-01-25T02:31:20;94855.06;;;5.15;88.35
6680;BME280;3376;42.664;23.346;2024-01-25T02:33:47;94848.03;;;5.17;88.66
6680;BME280;3376;42.664;23.346;2024-01-25T02:36:14;94843.97;;;5.05;88.82
6680;BME280;3376;42.664;23.346;2024-01-25T02:38:41;94847.22;;;5.07;88.86
6680;BME280;3376;42.664;23.346;2024-01-25T02:41:09;94734.66;;;4.36;89.05
6680;BME280;3376;42.664;23.346;2024-01-25T02:43:36;94840.59;;;5.05;89.37
6680;BME280;3376;42.664;23.346;2024-01-25T02:46:03;94840.47;;;5.06;88.86
6680;BME280;3376;42.664;23.346;2024-01-25T02:48:31;94841.41;;;5.05;88.53
6680;BME280;3376;42.664;23.346;2024-01-25T02:50:58;94836.28;;;5.05;89.01
6680;BME280;3376;42.664;23.346;2024-01-25T02:53:25;94841.28;;;5.16;88.31
6680;BME280;3376;42.664;23.346;2024-01-25T02:55:52;94840.19;;;5.09;87.94
6680;BME280;3376;42.664;23.346;2024-01-25T02:58:20;94830.59;;;5.02;88.43
6680;BME280;3376;42.664;23.346;2024-01-25T03:00:47;94838.03;;;4.95;88.04
6680;BME280;3376;42.664;23.346;2024-01-25T03:03:14;94838.97;;;4.85;89.78
6680;BME280;3376;42.664;23.346;2024-01-25T03:05:41;94855.00;;;4.77;90.93
6680;BME280;3376;42.664;23.346;2024-01-25T03:08:08;94789.47;;;4.35;92.25
6680;BME280;3376;42.664;23.346;2024-01-25T03:10:35;94842.31;;;4.75;92.59
6680;BME280;3376;42.664;23.346;2024-01-25T03:13:03;94810.16;;;4.62;100.00
6680;BME280;3376;42.664;23.346;2024-01-25T03:15:31;94844.53;;;5.18;100.00
6680;BME280;3376;42.664;23.346;2024-01-25T03:17:58;94819.88;;;5.54;100.00
6680;BME280;3376;42.664;23.346;2024-01-25T03:20:25;94827.34;;;6.13;100.00
6680;BME280;3376;42.664;23.346;2024-01-25T03:22:52;94823.06;;;6.58;98.18
6680;BME280;3376;42.664;23.346;2024-01-25T03:25:20;94833.63;;;6.99;95.71
6680;BME280;3376;42.664;23.346;2024-01-25T03:27:46;94822.63;;;7.25;92.81
6680;BME280;3376;42.664;23.346;2024-01-25T03:30:14;94838.44;;;7.47;91.50
6680;BME280;3376;42.664;23.346;2024-01-25T03:32:42;94832.09;;;7.59;90.22
6680;BME280;3376;42.664;23.346;2024-01-25T03:35:09;94836.63;;;7.65;90.30
6680;BME280;3376;42.664;23.346;2024-01-25T03:37:36;94847.34;;;7.78;88.46
6680;BME280;3376;42.664;23.346;2024-01-25T03:40:04;94835.31;;;7.87;89.19
6680;BME280;3376;42.664;23.346;2024-01-25T03:42:31;94818.75;;;7.89;87.20
6680;BME280;3376;42.664;23.346;2024-01-25T03:44:58;94792.81;;;7.91;89.19
6680;BME280;3376;42.664;23.346;2024-01-25T03:47:25;94764.44;;;7.65;88.76
6680;BME280;3376;42.664;23.346;2024-01-25T03:49:53;94797.31;;;7.89;85.65
6680;BME280;3376;42.664;23.346;2024-01-25T03:52:20;94800.44;;;8.00;84.54
6680;BME280;3376;42.664;23.346;2024-01-25T03:54:47;94795.41;;;7.99;84.29
6680;BME280;3376;42.664;23.346;2024-01-25T03:57:14;94776.66;;;7.89;84.43
6680;BME280;3376;42.664;23.346;2024-01-25T03:59:41;94774.78;;;7.99;83.84
6680;BME280;3376;42.664;23.346;2024-01-25T04:02:08;94772.31;;;7.89;83.32
6680;BME280;3376;42.664;23.346;2024-01-25T04:04:36;94786.19;;;7.88;83.53
6680;BME280;3376;42.664;23.346;2024-01-25T04:07:04;94773.59;;;7.85;82.79
6680;BME280;3376;42.664;23.346;2024-01-25T04:09:31;94768.72;;;7.82;81.61
6680;BME280;3376;42.664;23.346;2024-01-25T04:11:59;94772.16;;;7.91;82.31
6680;BME280;3376;42.664;23.346;2024-01-25T04:14:26;94767.19;;;7.97;82.94
6680;BME280;3376;42.664;23.346;2024-01-25T04:16:53;94766.25;;;7.98;81.58
6680;BME280;3376;42.664;23.346;2024-01-25T04:19:20;94782.63;;;7.89;82.72
6680;BME280;3376;42.664;23.346;2024-01-25T04:21:47;94769.78;;;7.97;82.48
6680;BME280;3376;42.664;23.346;2024-01-25T04:24:15;94774.34;;;8.03;82.53
6680;BME280;3376;42.664;23.346;2024-01-25T04:26:42;94778.19;;;7.99;81.75
6680;BME280;3376;42.664;23.346;2024-01-25T04:29:10;94764.53;;;8.07;82.32
6680;BME280;3376;42.664;23.346;2024-01-25T04:31:42;94780.44;;;8.02;80.89
6680;BME280;3376;42.664;23.346;2024-01-25T04:34:10;94771.41;;;7.98;80.17
6680;BME280;3376;42.664;23.346;2024-01-25T04:36:37;94769.63;;;7.99;80.35
6680;BME280;3376;42.664;23.346;2024-01-25T04:39:04;94771.84;;;7.94;81.17
6680;BME280;3376;42.664;23.346;2024-01-25T04:41:33;94777.28;;;7.83;80.42
6680;BME280;3376;42.664;23.346;2024-01-25T04:44:00;94789.69;;;7.79;81.76
6680;BME280;3376;42.664;23.346;2024-01-25T04:46:27;94800.59;;;7.73;80.30
6680;BME280;3376;42.664;23.346;2024-01-25T04:48:54;94800.22;;;7.68;80.37
6680;BME280;3376;42.664;23.346;2024-01-25T04:51:21;94810.81;;;7.57;80.07
6680;BME280;3376;42.664;23.346;2024-01-25T04:53:48;94793.31;;;7.26;80.72
6680;BME280;3376;42.664;23.346;2024-01-25T04:56:15;94816.94;;;7.21;81.88
6680;BME280;3376;42.664;23.346;2024-01-25T04:58:43;94807.75;;;7.18;81.29
6680;BME280;3376;42.664;23.346;2024-01-25T05:01:11;94807.00;;;7.08;82.59
6680;BME280;3376;42.664;23.346;2024-01-25T05:03:37;94807.66;;;6.93;84.10
6680;BME280;3376;42.664;23.346;2024-01-25T05:06:05;94796.84;;;6.72;86.24
6680;BME280;3376;42.664;23.346;2024-01-25T05:08:31;94822.16;;;6.76;83.42
6680;BME280;3376;42.664;23.346;2024-01-25T05:10:58;94804.16;;;6.49;83.90
6680;BME280;3376;42.664;23.346;2024-01-25T05:13:25;94807.41;;;6.51;84.04
6680;BME280;3376;42.664;23.346;2024-01-25T05:15:54;94850.03;;;6.81;83.74
6680;BME280;3376;42.664;23.346;2024-01-25T05:18:21;94846.56;;;6.72;83.79
6680;BME280;3376;42.664;23.346;2024-01-25T05:20:48;94856.63;;;6.66;82.81
6680;BME280;3376;42.664;23.346;2024-01-25T05:23:15;94874.09;;;6.72;91.10
6680;BME280;3376;42.664;23.346;2024-01-25T05:25:41;94872.53;;;6.79;84.79
6680;BME280;3376;42.664;23.346;2024-01-25T05:28:08;94859.75;;;6.87;80.97
6680;BME280;3376;42.664;23.346;2024-01-25T05:30:35;94852.78;;;6.97;79.98
6680;BME280;3376;42.664;23.346;2024-01-25T05:33:04;94875.56;;;7.37;91.69
6680;BME280;3376;42.664;23.346;2024-01-25T05:35:31;94811.94;;;7.02;79.71
6680;BME280;3376;42.664;23.346;2024-01-25T05:37:59;94872.22;;;7.44;79.40
6680;BME280;3376;42.664;23.346;2024-01-25T05:40:26;94870.59;;;7.43;77.68
6680;BME280;3376;42.664;23.346;2024-01-25T05:42:52;94864.22;;;7.47;76.80
6680;BME280;3376;42.664;23.346;2024-01-25T05:45:19;94880.19;;;7.51;77.04
6680;BME280;3376;42.664;23.346;2024-01-25T05:47:47;94833.50;;;7.18;75.42
6680;BME280;3376;42.664;23.346;2024-01-25T05:50:15;94872.31;;;7.52;75.40
6680;BME280;3376;42.664;23.346;2024-01-25T05:52:42;94897.25;;;7.69;74.33
6680;BME280;3376;42.664;23.346;2024-01-25T05:55:09;94902.34;;;7.61;75.62
6680;BME280;3376;42.664;23.346;2024-01-25T05:57:36;94894.16;;;7.66;75.11
6680;BME280;3376;42.664;23.346;2024-01-25T06:00:05;94898.66;;;7.64;75.62
6680;BME280;3376;42.664;23.346;2024-01-25T06:02:33;94866.53;;;7.58;76.51
6680;BME280;3376;42.664;23.346;2024-01-25T06:04:59;94905.00;;;7.69;75.91
6680;BME280;3376;42.664;23.346;2024-01-25T06:07:28;94907.44;;;7.71;74.61
6680;BME280;3376;42.664;23.346;2024-01-25T06:09:56;94911.84;;;7.61;76.57
6680;BME280;3376;42.664;23.346;2024-01-25T06:12:23;94911.63;;;7.54;75.77
6680;BME280;3376;42.664;23.346;2024-01-25T06:14:49;94911.47;;;7.38;76.57
6680;BME280;3376;42.664;23.346;2024-01-25T06:17:17;94909.28;;;7.43;77.93
6680;BME280;3376;42.664;23.346;2024-01-25T06:19:44;94897.19;;;7.44;77.56
6680;BME280;3376;42.664;23.346;2024-01-25T06:22:11;94917.28;;;7.58;77.22
6680;BME280;3376;42.664;23.346;2024-01-25T06:24:40;94908.09;;;7.55;76.19
6680;BME280;3376;42.664;23.346;2024-01-25T06:27:07;94909.03;;;7.54;76.18
6680;BME280;3376;42.664;23.346;2024-01-25T06:29:34;94909.03;;;7.54;75.55
6680;BME280;3376;42.664;23.346;2024-01-25T06:32:01;94922.75;;;7.55;75.40
6680;BME280;3376;42.664;23.346;2024-01-25T06:34:28;94899.47;;;7.47;74.87
6680;BME280;3376;42.664;23.346;2024-01-25T06:36:55;94918.78;;;7.60;75.83
6680;BME280;3376;42.664;23.346;2024-01-25T06:39:22;94896.28;;;7.53;75.65
6680;BME280;3376;42.664;23.346;2024-01-25T06:41:50;94889.75;;;7.58;78.00
6680;BME280;3376;42.664;23.346;2024-01-25T06:44:17;94906.19;;;7.57;77.12
6680;BME280;3376;42.664;23.346;2024-01-25T06:46:44;94885.84;;;7.54;77.36
6680;BME280;3376;42.664;23.346;2024-01-25T06:49:11;94880.03;;;7.35;77.39
6680;BME280;3376;42.664;23.346;2024-01-25T06:51:39;94914.13;;;7.64;75.99
6680;BME280;3376;42.664;23.346;2024-01-25T06:54:06;94922.81;;;7.63;75.80
6680;BME280;3376;42.664;23.346;2024-01-25T06:56:34;94907.50;;;7.61;76.00
6680;BME280;3376;42.664;23.346;2024-01-25T06:59:02;94881.34;;;7.56;77.15
6680;BME280;3376;42.664;23.346;2024-01-25T07:01:29;94893.34;;;7.65;76.39
6680;BME280;3376;42.664;23.346;2024-01-25T07:03:56;94885.19;;;7.52;76.75
6680;BME280;3376;42.664;23.346;2024-01-25T07:06:23;94881.66;;;7.53;76.66
6680;BME280;3376;42.664;23.346;2024-01-25T07:08:51;94879.38;;;7.50;76.80
6680;BME280;3376;42.664;23.346;2024-01-25T07:11:19;94870.88;;;7.58;76.58
6680;BME280;3376;42.664;23.346;2024-01-25T07:13:46;94894.59;;;7.61;75.47
6680;BME280;3376;42.664;23.346;2024-01-25T07:16:15;94901.44;;;7.70;75.83
6680;BME280;3376;42.664;23.346;2024-01-25T07:18:41;94881.94;;;7.68;74.97
6680;BME280;3376;42.664;23.346;2024-01-25T07:21:08;94875.81;;;7.69;74.47
6680;BME280;3376;42.664;23.346;2024-01-25T07:23:35;94863.50;;;7.63;75.08
6680;BME280;3376;42.664;23.346;2024-01-25T07:26:02;94904.03;;;7.70;74.95
6680;BME280;3376;42.664;23.346;2024-01-25T07:28:31;94912.06;;;7.67;74.14
6680;BME280;3376;42.664;23.346;2024-01-25T07:30:58;94905.22;;;7.76;74.30
6680;BME280;3376;42.664;23.346;2024-01-25T07:33:26;94907.94;;;7.74;74.61
6680;BME280;3376;42.664;23.346;2024-01-25T07:35:53;94901.16;;;7.73;74.02
6680;BME280;3376;42.664;23.346;2024-01-25T07:38:24;94882.88;;;7.67;74.16
6680;BME280;3376;42.664;23.346;2024-01-25T07:40:50;94892.38;;;7.66;74.13
6680;BME280;3376;42.664;23.346;2024-01-25T07:43:18;94725.34;;;6.66;74.42
6680;BME280;3376;42.664;23.346;2024-01-25T07:45:45;94914.13;;;7.81;75.17
6680;BME280;3376;42.664;23.346;2024-01-25T07:48:12;94913.47;;;7.79;74.21
6680;BME280;3376;42.664;23.346;2024-01-25T07:50:40;94920.94;;;7.90;74.15
6680;BME280;3376;42.664;23.346;2024-01-25T07:53:07;94892.09;;;7.69;73.42
6680;BME280;3376;42.664;23.346;2024-01-25T07:55:35;94940.53;;;8.01;73.24
6680;BME280;3376;42.664;23.346;2024-01-25T07:58:02;94924.47;;;8.07;72.46
6680;BME280;3376;42.664;23.346;2024-01-25T08:00:29;94925.69;;;8.20;72.68
6680;BME280;3376;42.664;23.346;2024-01-25T08:02:56;94928.19;;;8.56;71.63
6680;BME280;3376;42.664;23.346;2024-01-25T08:05:22;94927.31;;;8.73;69.39
6680;BME280;3376;42.664;23.346;2024-01-25T08:07:51;94925.06;;;8.78;68.47
6680;BME280;3376;42.664;23.346;2024-01-25T08:10:18;94929.19;;;8.63;67.94
6680;BME280;3376;42.664;23.346;2024-01-25T08:12:45;94928.47;;;8.45;69.00
6680;BME280;3376;42.664;23.346;2024-01-25T08:15:13;94929.38;;;8.36;69.70
6680;BME280;3376;42.664;23.346;2024-01-25T08:17:40;94930.78;;;8.30;69.22
6680;BME280;3376;42.664;23.346;2024-01-25T08:20:09;94913.69;;;8.29;69.87
6680;BME280;3376;42.664;23.346;2024-01-25T08:22:36;94926.75;;;8.27;68.71
6680;BME280;3376;42.664;23.346;2024-01-25T08:25:05;94921.88;;;8.24;68.53
6680;BME280;3376;42.664;23.346;2024-01-25T08:27:33;94949.31;;;8.25;69.86
6680;BME280;3376;42.664;23.346;2024-01-25T08:30:00;94943.25;;;8.35;69.34
6680;BME280;3376;42.664;23.346;2024-01-25T08:32:28;94939.59;;;8.45;68.75
6680;BME280;3376;42.664;23.346;2024-01-25T08:34:55;94939.81;;;8.52;67.69
6680;BME280;3376;42.664;23.346;2024-01-25T08:37:22;94933.63;;;8.45;66.51
6680;BME280;3376;42.664;23.346;2024-01-25T08:39:49;94939.31;;;8.48;68.35
6680;BME280;3376;42.664;23.346;2024-01-25T08:42:18;94953.63;;;8.43;67.84
6680;BME280;3376;42.664;23.346;2024-01-25T08:44:46;94941.56;;;8.51;67.24
6680;BME280;3376;42.664;23.346;2024-01-25T08:47:16;94952.44;;;8.63;66.55
6680;BME280;3376;42.664;23.346;2024-01-25T08:49:43;94958.16;;;8.74;66.31
6680;BME280;3376;42.664;23.346;2024-01-25T08:52:10;94944.84;;;8.61;65.62
6680;BME280;3376;42.664;23.346;2024-01-25T08:54:37;94908.91;;;8.42;65.73
6680;BME280;3376;42.664;23.346;2024-01-25T08:57:04;94932.06;;;8.52;66.26
6680;BME280;3376;42.664;23.346;2024-01-25T08:59:34;94946.47;;;8.62;65.84
6680;BME280;3376;42.664;23.346;2024-01-25T09:02:03;94945.34;;;8.65;66.08
6680;BME280;3376;42.664;23.346;2024-01-25T09:04:31;94937.72;;;8.89;64.72
6680;BME280;3376;42.664;23.346;2024-01-25T09:06:58;94914.75;;;8.78;64.90
6680;BME280;3376;42.664;23.346;2024-01-25T09:09:26;94941.34;;;9.04;66.24
6680;BME280;3376;42.664;23.346;2024-01-25T09:11:53;94939.97;;;9.25;65.02
6680;BME280;3376;42.664;23.346;2024-01-25T09:14:20;94951.66;;;9.53;64.41
6680;BME280;3376;42.664;23.346;2024-01-25T09:16:49;94924.03;;;9.70;61.79
6680;BME280;3376;42.664;23.346;2024-01-25T09:19:16;94950.16;;;10.09;61.17
6680;BME280;3376;42.664;23.346;2024-01-25T09:21:43;94947.69;;;10.07;60.57
6680;BME280;3376;42.664;23.346;2024-01-25T09:24:10;94949.31;;;9.92;62.33
6680;BME280;3376;42.664;23.346;2024-01-25T09:26:37;94943.63;;;9.73;63.01
6680;BME280;3376;42.664;23.346;2024-01-25T09:29:04;94951.81;;;9.52;61.64
6680;BME280;3376;42.664;23.346;2024-01-25T09:31:31;94922.72;;;9.34;63.66
6680;BME280;3376;42.664;23.346;2024-01-25T09:33:59;94938.97;;;9.18;63.28
6680;BME280;3376;42.664;23.346;2024-01-25T09:36:26;94924.31;;;9.27;64.19
6680;BME280;3376;42.664;23.346;2024-01-25T09:38:53;94945.50;;;9.46;64.73
6680;BME280;3376;42.664;23.346;2024-01-25T09:41:20;94930.97;;;9.62;63.56
6680;BME280;3376;42.664;23.346;2024-01-25T09:43:47;94927.47;;;9.95;60.99
6680;BME280;3376;42.664;23.346;2024-01-25T09:46:15;94923.28;;;10.10;60.48
6680;BME280;3376;42.664;23.346;2024-01-25T09:49:01;94928.63;;;10.08;61.45
6680;BME280;3376;42.664;23.346;2024-01-25T09:51:30;94922.13;;;9.96;60.93
6680;BME280;3376;42.664;23.346;2024-01-25T09:54:00;94888.31;;;9.74;61.67
6680;BME280;3376;42.664;23.346;2024-01-25T09:56:29;94909.50;;;9.77;62.21
6680;BME280;3376;42.664;23.346;2024-01-25T09:58:58;94913.69;;;9.70;61.53
6680;BME280;3376;42.664;23.346;2024-01-25T10:01:25;94904.16;;;9.71;61.93
6680;BME280;3376;42.664;23.346;2024-01-25T10:03:53;94902.41;;;9.71;64.21
6680;BME280;3376;42.664;23.346;2024-01-25T10:06:23;94898.19;;;9.62;66.01
6680;BME280;3376;42.664;23.346;2024-01-25T10:08:50;94896.25;;;9.56;67.36
6680;BME280;3376;42.664;23.346;2024-01-25T10:11:18;94894.63;;;9.63;65.55
6680;BME280;3376;42.664;23.346;2024-01-25T10:13:46;94882.19;;;9.67;63.76
6680;BME280;3376;42.664;23.346;2024-01-25T10:16:17;94883.31;;;9.64;63.40
6680;BME280;3376;42.664;23.346;2024-01-25T10:18:46;94876.03;;;9.60;63.80
6680;BME280;3376;42.664;23.346;2024-01-25T10:21:14;94871.34;;;9.63;65.03
6680;BME280;3376;42.664;23.346;2024-01-25T10:23:45;94875.22;;;9.67;64.54
6680;BME280;3376;42.664;23.346;2024-01-25T10:26:12;94879.44;;;10.08;61.98
6680;BME280;3376;42.664;23.346;2024-01-25T10:28:39;94869.81;;;10.49;62.40
6680;BME280;3376;42.664;23.346;2024-01-25T10:31:06;94876.63;;;10.89;59.61
6680;BME280;3376;42.664;23.346;2024-01-25T10:33:34;94865.50;;;11.19;58.55
6680;BME280;3376;42.664;23.346;2024-01-25T10:36:06;94882.50;;;11.44;57.55
6680;BME280;3376;42.664;23.346;2024-01-25T10:38:35;94886.75;;;11.67;57.21
6680;BME280;3376;42.664;23.346;2024-01-25T10:41:05;94871.78;;;11.47;57.20
6680;BME280;3376;42.664;23.346;2024-01-25T10:43:32;94887.59;;;11.37;56.66
6680;BME280;3376;42.664;23.346;2024-01-25T10:46:00;94880.34;;;10.94;58.08
6680;BME280;3376;42.664;23.346;2024-01-25T10:48:27;94853.00;;;10.45;59.02
6680;BME280;3376;42.664;23.346;2024-01-25T10:50:54;94854.25;;;10.57;60.09
6680;BME280;3376;42.664;23.346;2024-01-25T10:53:22;94859.38;;;10.26;61.20
6680;BME280;3376;42.664;23.346;2024-01-25T10:55:50;94850.72;;;10.50;61.25
6680;BME280;3376;42.664;23.346;2024-01-25T10:58:19;94851.13;;;10.69;59.66
6680;BME280;3376;42.664;23.346;2024-01-25T11:00:51;94842.84;;;10.74;59.39
6680;BME280;3376;42.664;23.346;2024-01-25T11:03:18;94846.34;;;11.20;58.84
6680;BME280;3376;42.664;23.346;2024-01-25T11:05:46;94856.53;;;11.74;56.41
6680;BME280;3376;42.664;23.346;2024-01-25T11:08:18;94807.09;;;11.91;54.03
6680;BME280;3376;42.664;23.346;2024-01-25T11:10:50;94839.38;;;11.88;53.88
6680;BME280;3376;42.664;23.346;2024-01-25T11:13:23;94839.44;;;11.65;54.81
6680;BME280;3376;42.664;23.346;2024-01-25T11:15:51;94827.41;;;11.42;55.18
6680;BME280;3376;42.664;23.346;2024-01-25T11:18:18;94817.94;;;11.04;55.75
6680;BME280;3376;42.664;23.346;2024-01-25T11:20:47;94809.28;;;10.81;57.73
6680;BME280;3376;42.664;23.346;2024-01-25T11:23:16;94801.59;;;10.64;58.26
6680;BME280;3376;42.664;23.346;2024-01-25T11:25:44;94799.09;;;10.40;58.96
6680;BME280;3376;42.664;23.346;2024-01-25T11:28:14;94801.59;;;10.26;58.48
6680;BME280;3376;42.664;23.346;2024-01-25T11:30:43;94807.09;;;10.15;58.09
6680;BME280;3376;42.664;23.346;2024-01-25T11:33:11;94803.09;;;9.88;59.51
6680;BME280;3376;42.664;23.346;2024-01-25T11:35:39;94795.03;;;9.75;60.29
6680;BME280;3376;42.664;23.346;2024-01-25T11:38:07;94796.66;;;9.68;60.26
6680;BME280;3376;42.664;23.346;2024-01-25T11:40:34;94783.91;;;9.42;61.85
6680;BME280;3376;42.664;23.346;2024-01-25T11:43:01;94793.75;;;9.31;60.42
6680;BME280;3376;42.664;23.346;2024-01-25T11:45:28;94796.00;;;9.18;61.06
6680;BME280;3376;42.664;23.346;2024-01-25T11:47:57;94788.59;;;9.15;62.28
6680;BME280;3376;42.664;23.346;2024-01-25T11:50:24;94798.44;;;9.11;61.38
6680;BME280;3376;42.664;23.346;2024-01-25T11:52:51;94795.03;;;9.11;62.33
6680;BME280;3376;42.664;23.346;2024-01-25T11:55:18;94770.78;;;8.96;61.96
6680;BME280;3376;42.664;23.346;2024-01-25T11:57:45;94776.63;;;9.14;62.12
6680;BME280;3376;42.664;23.346;2024-01-25T12:00:14;94776.63;;;9.14;62.44
6680;BME280;3376;42.664;23.346;2024-01-25T12:02:42;94773.69;;;9.09;62.18
6680;BME280;3376;42.664;23.346;2024-01-25T12:05:11;94777.88;;;9.02;63.72
6680;BME280;3376;42.664;23.346;2024-01-25T12:07:39;94802.63;;;9.04;62.28
6680;BME280;3376;42.664;23.346;2024-01-25T12:10:07;94791.00;;;9.08;62.36
6680;BME280;3376;42.664;23.346;2024-01-25T12:12:35;94798.59;;;9.10;63.06
6680;BME280;3376;42.664;23.346;2024-01-25T12:15:05;94789.53;;;9.06;62.30
6680;BME280;3376;42.664;23.346;2024-01-25T12:17:33;94785.03;;;9.16;62.10
6680;BME280;3376;42.664;23.346;2024-01-25T12:20:02;94765.94;;;9.01;61.96
6680;BME280;3376;42.664;23.346;2024-01-25T12:22:34;94787.94;;;9.21;61.60
6680;BME280;3376;42.664;23.346;2024-01-25T12:25:01;94769.84;;;9.29;62.34
6680;BME280;3376;42.664;23.346;2024-01-25T12:27:29;94783.59;;;9.37;61.48
6680;BME280;3376;42.664;23.346;2024-01-25T12:29:58;94783.03;;;9.98;59.58
6680;BME280;3376;42.664;23.346;2024-01-25T12:32:24;94783.09;;;10.76;58.08
6680;BME280;3376;42.664;23.346;2024-01-25T12:34:55;94766.41;;;11.23;55.12
6680;BME280;3376;42.664;23.346;2024-01-25T12:37:22;94736.06;;;11.69;52.98
6680;BME280;3376;42.664;23.346;2024-01-25T12:39:51;94751.88;;;12.11;51.95
6680;BME280;3376;42.664;23.346;2024-01-25T12:42:18;94697.78;;;11.86;51.63
6680;BME280;3376;42.664;23.346;2024-01-25T12:44:45;94717.94;;;11.83;50.64
6680;BME280;3376;42.664;23.346;2024-01-25T12:47:13;94718.81;;;11.91;51.00
6680;BME280;3376;42.664;23.346;2024-01-25T12:49:40;94719.06;;;11.81;51.23
6680;BME280;3376;42.664;23.346;2024-01-25T12:52:08;94728.16;;;12.00;50.86
6680;BME280;3376;42.664;23.346;2024-01-25T12:54:35;94705.31;;;12.10;50.16
6680;BME280;3376;42.664;23.346;2024-01-25T12:57:05;94709.06;;;12.22;50.15
6680;BME280;3376;42.664;23.346;2024-01-25T12:59:32;94689.03;;;12.01;49.88
6680;BME280;3376;42.664;23.346;2024-01-25T13:01:59;94686.03;;;12.19;49.31
6680;BME280;3376;42.664;23.346;2024-01-25T13:04:27;94693.84;;;11.75;49.51
6680;BME280;3376;42.664;23.346;2024-01-25T13:06:55;94672.88;;;11.62;50.53
6680;BME280;3376;42.664;23.346;2024-01-25T13:09:22;94695.72;;;11.81;50.11
6680;BME280;3376;42.664;23.346;2024-01-25T13:11:49;94669.06;;;11.87;51.28
6680;BME280;3376;42.664;23.346;2024-01-25T13:14:19;94668.16;;;11.80;49.41
6680;BME280;3376;42.664;23.346;2024-01-25T13:16:46;94679.81;;;11.84;50.25
6680;BME280;3376;42.664;23.346;2024-01-25T13:19:13;94680.00;;;11.82;49.02
6680;BME280;3376;42.664;23.346;2024-01-25T13:21:40;94705.75;;;12.13;50.01